Red Lodge, MT (59068)

3:11 PM MDT on July 27, 2016 (GMT -0600)
Lazy SL Ranches | | Change Station

Elev 5502 ft 45.22 °N, 109.30 °W | Updated 3 minutes ago

Clear
Clear
79.9 °F
Feels Like 80 °F
N
4.2
Wind Variable Wind from NW

Today
High -- | Low -- °F
--% Chance of Precip.
Yesterday
High -- | Low -- °F
Precip. -- in
Pressure 30.18 in
Visibility 10.0 miles
Clouds Clear
Heat Index 80 °F
Dew Point 50 °F
Humidity 36%
Rainfall 0.00 in
Snow Depth Not available.
5:57 AM 8:49 PM
Last Quarter, 39% visible
METAR KCOD 272055Z AUTO 05004KT 10SM CLR 28/08 A3018 RMK AO1 57010
Pressure 30.18 in
Visibility 10.0 miles
Clouds Clear
Heat Index 80 °F
Dew Point 50 °F
Humidity 36%
Rainfall 0.00 in
Snow Depth Not available.
5:57 AM 8:49 PM
Last Quarter, 39% visible
METAR KCOD 272055Z AUTO 05004KT 10SM CLR 28/08 A3018 RMK AO1 57010

10-Day Weather Forecast

Almanac

Astronomy

Jul. 27, 2016 Rise Set
Actual Time
Civil Twilight
Nautical Twilight
Astronomical Twilight
Moon
Length of Visible Light
Length of Day
Tomorrow will be .
, % of the Moon is Illuminated

Today's Extremes

State Highs State Lows

Community

WunderPhotos

Upload Photos

1,927,937 photos uploaded!

WunderBlog® & News

Nearby

Air Quality

  Air Quality AQ Index Pollutant
Not available.

Snow Depth

Station Depth Elevation

Earthquake Activity

City Distance Mag. Time & Date
Minimum magnitude displayed is 2.5.

Coastal Water Temperatures

Place Temperature

Stations

Nearby Weather Stations

Station Location Temp. Windchill Dew Point Humidity Wind Precip. Elev Updated Type
                   

Watches & Warnings

There are currently no watches in effect.